createdAt,value
2022-09-09T00:02:15.957Z,17.90
2022-09-09T00:05:47.899Z,18.02
2022-09-09T00:09:23.885Z,17.53
2022-09-09T00:12:59.897Z,17.56
2022-09-09T00:16:34.236Z,17.99
2022-09-09T00:20:19.933Z,18.06
2022-09-09T00:23:58.881Z,19.65
2022-09-09T00:27:37.877Z,18.52
2022-09-09T00:31:03.892Z,18.30
2022-09-09T00:34:36.917Z,18.12
2022-09-09T00:38:04.882Z,18.12
2022-09-09T00:41:37.953Z,17.83
2022-09-09T00:45:09.904Z,18.08
2022-09-09T00:48:33.999Z,17.58
2022-09-09T00:52:04.851Z,17.97
2022-09-09T00:55:46.929Z,18.09
2022-09-09T00:59:36.907Z,17.79
2022-09-09T01:03:06.018Z,18.21
2022-09-09T01:06:35.990Z,18.51
2022-09-09T01:10:16.999Z,18.47
2022-09-09T01:13:45.034Z,18.34
2022-09-09T01:17:12.024Z,18.63
2022-09-09T01:20:50.039Z,19.48
2022-09-09T01:24:52.985Z,20.38
2022-09-09T01:28:37.998Z,19.74
2022-09-09T01:32:12.009Z,19.57
2022-09-09T01:35:48.001Z,19.72
2022-09-09T01:39:13.991Z,19.71
2022-09-09T01:42:45.961Z,19.58
2022-09-09T01:46:11.991Z,19.56
2022-09-09T02:08:45.985Z,18.66
2022-09-09T02:12:30.896Z,18.48
2022-09-09T02:16:30.007Z,18.57
2022-09-09T02:19:52.520Z,18.58
2022-09-09T02:23:36.968Z,18.55
2022-09-09T02:27:05.931Z,18.46
2022-09-09T02:30:30.963Z,18.88
2022-09-09T02:33:58.884Z,18.74
2022-09-09T02:37:24.961Z,18.04
2022-09-09T02:40:48.896Z,18.53
2022-09-09T02:44:12.002Z,18.21
2022-09-09T02:48:05.888Z,18.26
2022-09-09T02:51:42.935Z,18.45
2022-09-09T02:55:10.901Z,18.36
2022-09-09T02:58:37.063Z,18.35
2022-09-09T03:02:01.968Z,18.06
2022-09-09T03:05:25.990Z,18.02
2022-09-09T03:08:50.955Z,17.99
2022-09-09T03:12:16.941Z,17.93
2022-09-09T03:15:40.952Z,18.34
2022-09-09T03:19:06.942Z,18.66
2022-09-09T03:22:25.474Z,18.49
2022-09-09T03:25:44.986Z,18.50
2022-09-09T03:29:05.942Z,18.27
2022-09-09T03:32:31.929Z,18.33
2022-09-09T03:36:01.970Z,18.45
2022-09-09T03:39:26.930Z,18.33
2022-09-09T03:42:50.966Z,18.08
2022-09-09T03:46:17.023Z,17.92
2022-09-09T03:49:41.964Z,17.57
2022-09-09T03:53:05.968Z,17.48
2022-09-09T03:56:31.018Z,17.44
2022-09-09T03:59:54.966Z,17.53
2022-09-09T04:03:24.697Z,17.28
2022-09-09T04:06:51.954Z,17.21
2022-09-09T04:10:17.027Z,17.23
2022-09-09T04:13:42.927Z,17.10
2022-09-09T04:17:08.966Z,17.32
2022-09-09T04:20:32.985Z,17.16
2022-09-09T04:23:58.011Z,17.39
2022-09-09T04:27:23.008Z,17.55
2022-09-09T04:30:48.952Z,18.45
2022-09-09T04:34:13.970Z,18.76
2022-09-09T04:37:39.075Z,18.51
2022-09-09T04:41:03.008Z,17.79
2022-09-09T04:44:29.034Z,17.67
2022-09-09T04:47:52.969Z,17.44
2022-09-09T04:51:18.976Z,17.40
2022-09-09T04:54:43.971Z,17.00
2022-09-09T04:58:07.989Z,16.92
2022-09-09T05:01:36.011Z,17.16
2022-09-09T05:05:02.019Z,16.99
2022-09-09T05:08:26.969Z,16.67
2022-09-09T05:11:51.121Z,16.79
2022-09-09T05:15:21.021Z,16.32
2022-09-09T05:18:46.038Z,16.37
2022-09-09T05:22:10.031Z,16.14
2022-09-09T05:25:35.949Z,15.87
2022-09-09T05:28:58.993Z,15.94
2022-09-09T05:32:27.006Z,16.20
2022-09-09T05:35:52.032Z,15.99
2022-09-09T05:39:16.006Z,15.65
2022-09-09T05:42:41.047Z,15.78
2022-09-09T05:46:19.062Z,15.77
2022-09-09T05:49:44.002Z,15.48
2022-09-09T05:53:12.033Z,15.43
2022-09-09T05:56:38.043Z,15.44
2022-09-09T06:00:03.012Z,15.18
2022-09-09T06:03:32.993Z,15.03
2022-09-09T06:06:58.014Z,14.98
2022-09-09T06:10:22.980Z,15.05
2022-09-09T06:13:48.011Z,14.72
2022-09-09T06:17:14.034Z,14.59
2022-09-09T06:20:40.081Z,14.72
2022-09-09T06:24:01.002Z,14.72
2022-09-09T06:27:20.073Z,14.73
2022-09-09T06:30:46.027Z,14.52
2022-09-09T06:34:10.071Z,14.70
2022-09-09T06:37:38.991Z,14.65
2022-09-09T06:41:11.085Z,14.54
2022-09-09T06:44:36.051Z,14.47
2022-09-09T06:48:04.050Z,14.54
2022-09-09T06:51:35.055Z,14.58
2022-09-09T06:55:00.017Z,14.52
2022-09-09T06:58:25.045Z,14.51
2022-09-09T07:01:58.096Z,14.46
2022-09-09T07:05:21.090Z,14.39
2022-09-09T07:08:55.311Z,14.30
2022-09-09T07:12:20.050Z,14.21
2022-09-09T07:15:50.119Z,14.24
2022-09-09T07:19:14.062Z,14.14
2022-09-09T07:22:43.044Z,14.16
2022-09-09T07:26:01.641Z,14.12
2022-09-09T07:29:23.060Z,14.11
2022-09-09T07:32:49.031Z,14.05
2022-09-09T07:36:28.875Z,14.05
2022-09-09T07:40:00.081Z,14.01
2022-09-09T07:43:28.063Z,14.00
2022-09-09T07:46:54.120Z,14.01
2022-09-09T07:50:26.112Z,13.92
2022-09-09T07:53:50.021Z,13.89
2022-09-09T07:57:14.114Z,13.86
2022-09-09T08:00:39.068Z,13.85
2022-09-09T08:04:08.066Z,13.74
2022-09-09T08:07:34.041Z,13.73
2022-09-09T08:10:58.115Z,13.73
2022-09-09T08:14:24.068Z,13.67
2022-09-09T08:17:49.121Z,13.72
2022-09-09T08:21:07.055Z,13.58
2022-09-09T08:24:32.118Z,13.45
2022-09-09T08:27:56.059Z,13.48
2022-09-09T08:31:32.097Z,13.30
2022-09-09T08:35:01.062Z,13.24
2022-09-09T08:38:25.080Z,13.17
2022-09-09T08:42:16.093Z,13.14
2022-09-09T08:45:48.121Z,13.09
2022-09-09T08:49:18.101Z,13.00
2022-09-09T08:52:48.115Z,12.92
2022-09-09T08:56:18.071Z,12.91
2022-09-09T08:59:46.117Z,12.82
2022-09-09T09:03:26.097Z,12.82
2022-09-09T09:07:11.099Z,12.70
2022-09-09T09:10:49.132Z,12.78
2022-09-09T09:14:26.177Z,12.59
2022-09-09T09:17:54.147Z,12.51
2022-09-09T09:21:57.110Z,12.45
2022-09-09T09:25:28.200Z,12.32
2022-09-09T09:28:46.737Z,12.39
2022-09-09T09:32:08.139Z,12.36
2022-09-09T09:35:35.205Z,12.18
2022-09-09T09:43:09.078Z,12.17
2022-09-09T09:46:39.093Z,12.10
2022-09-09T09:50:14.067Z,12.00
2022-09-09T09:53:44.165Z,12.06
2022-09-09T09:57:09.119Z,11.80
2022-09-09T10:00:38.119Z,11.70
2022-09-09T10:04:07.073Z,11.61
2022-09-09T10:07:38.158Z,11.65
2022-09-09T10:11:53.151Z,11.53
2022-09-09T10:15:22.099Z,11.43
2022-09-09T10:19:14.109Z,11.43
2022-09-09T10:22:48.114Z,11.34
2022-09-09T10:26:21.106Z,11.30
2022-09-09T10:30:17.123Z,11.20
2022-09-09T10:34:04.140Z,11.13
2022-09-09T10:37:59.119Z,11.17
2022-09-09T10:41:29.100Z,11.03
2022-09-09T10:45:04.120Z,11.10
2022-09-09T10:48:40.164Z,10.99
2022-09-09T10:52:28.180Z,10.95
2022-09-09T10:56:00.097Z,10.62
2022-09-09T10:59:32.134Z,10.32
2022-09-09T11:02:56.142Z,10.31
2022-09-09T11:06:30.236Z,10.52
2022-09-09T11:09:58.108Z,10.57
2022-09-09T11:13:37.178Z,10.60
2022-09-09T11:17:18.142Z,10.61
2022-09-09T11:20:42.147Z,10.66
2022-09-09T11:24:23.165Z,10.53
2022-09-09T11:28:08.186Z,10.46
2022-09-09T11:31:37.852Z,10.49
2022-09-09T11:35:05.141Z,10.47
2022-09-09T11:38:45.185Z,10.40
2022-09-09T11:42:09.150Z,10.33
2022-09-09T11:45:42.225Z,10.35
2022-09-09T11:49:18.155Z,10.27
2022-09-09T11:52:57.156Z,10.32
2022-09-09T11:56:26.109Z,10.33
2022-09-09T11:59:49.198Z,10.23
2022-09-09T12:03:13.158Z,10.27
2022-09-09T12:06:49.160Z,10.29
2022-09-09T12:10:35.180Z,10.29
2022-09-09T12:14:12.141Z,10.10
2022-09-09T12:17:39.159Z,10.22
2022-09-09T12:21:37.203Z,10.20
2022-09-09T12:25:25.176Z,10.42
2022-09-09T12:29:07.189Z,10.39
2022-09-09T12:32:32.794Z,10.41
2022-09-09T12:35:53.191Z,10.43
2022-09-09T12:39:32.246Z,10.59
2022-09-09T12:42:59.209Z,10.66
2022-09-09T12:46:38.172Z,10.85
2022-09-09T12:50:05.184Z,10.94
2022-09-09T12:53:52.168Z,10.95
2022-09-09T12:57:15.218Z,11.04
2022-09-09T13:00:40.172Z,11.02
2022-09-09T13:04:03.179Z,11.06
2022-09-09T13:07:28.210Z,11.10
2022-09-09T13:11:06.155Z,11.07
2022-09-09T13:14:50.159Z,11.13
2022-09-09T13:18:19.149Z,11.19
2022-09-09T13:21:53.181Z,11.17
2022-09-09T13:25:23.192Z,11.20
2022-09-09T13:28:47.240Z,11.23
2022-09-09T13:32:21.189Z,11.17
2022-09-09T13:35:45.355Z,11.15
2022-09-09T13:39:12.138Z,11.11
2022-09-09T13:42:44.239Z,11.01
2022-09-09T13:46:13.314Z,11.04
2022-09-09T13:49:39.158Z,11.02
2022-09-09T13:53:05.186Z,10.96
2022-09-09T13:56:29.204Z,10.90
2022-09-09T14:00:08.407Z,10.87
2022-09-09T14:03:31.212Z,10.90
2022-09-09T14:06:55.206Z,10.85
2022-09-09T14:10:19.207Z,10.86
2022-09-09T14:13:43.250Z,10.90
2022-09-09T14:17:08.101Z,10.98
2022-09-09T14:20:32.213Z,11.02
2022-09-09T14:23:57.172Z,11.04
2022-09-09T14:27:21.207Z,11.08
2022-09-09T14:30:46.210Z,11.12
2022-09-09T14:34:10.251Z,11.17
2022-09-09T14:37:34.215Z,11.16
2022-09-09T14:41:01.247Z,11.17
2022-09-09T14:44:25.213Z,11.13
2022-09-09T14:47:49.256Z,11.11
2022-09-09T14:51:14.217Z,11.00
2022-09-09T14:54:37.216Z,11.03
2022-09-09T14:58:02.216Z,11.06
2022-09-09T15:01:31.291Z,11.05
2022-09-09T15:04:55.244Z,11.11
2022-09-09T15:08:20.216Z,11.16
2022-09-09T15:11:48.211Z,11.12
2022-09-09T15:15:11.226Z,11.19
2022-09-09T15:18:36.182Z,11.23
2022-09-09T15:22:00.259Z,11.31
2022-09-09T15:25:26.241Z,11.24
2022-09-09T15:28:52.263Z,11.26
2022-09-09T15:32:16.249Z,11.34
2022-09-09T15:35:40.364Z,11.24
2022-09-09T15:39:04.239Z,11.26
2022-09-09T15:42:28.266Z,11.29
2022-09-09T15:45:52.322Z,11.30
2022-09-09T15:49:31.213Z,11.31
2022-09-09T15:52:56.241Z,11.29
2022-09-09T15:56:20.265Z,11.28
2022-09-09T15:59:44.248Z,11.26
2022-09-09T16:03:09.266Z,11.36
2022-09-09T16:06:37.289Z,11.35
2022-09-09T16:10:02.266Z,11.35
2022-09-09T16:13:26.251Z,11.35
2022-09-09T16:16:51.270Z,11.30
2022-09-09T16:20:18.026Z,11.30
2022-09-09T16:23:43.339Z,11.31
2022-09-09T16:27:09.255Z,11.29
2022-09-09T16:30:33.261Z,11.23
2022-09-09T16:33:57.255Z,11.29
2022-09-09T16:37:20.261Z,11.35
2022-09-09T16:40:45.222Z,11.34
2022-09-09T16:44:20.266Z,11.42
2022-09-09T16:47:44.210Z,11.41
2022-09-09T16:51:08.256Z,11.32
2022-09-09T16:54:34.285Z,11.42
2022-09-09T16:57:58.312Z,11.43
2022-09-09T17:01:23.296Z,11.27
2022-09-09T17:04:46.302Z,11.30
2022-09-09T17:08:10.275Z,11.19
2022-09-09T17:11:34.232Z,11.16
2022-09-09T17:14:59.294Z,11.10
2022-09-09T17:18:26.311Z,11.13
2022-09-09T17:22:14.977Z,11.01
2022-09-09T17:25:35.303Z,10.98
2022-09-09T17:29:01.239Z,10.90
2022-09-09T17:32:27.307Z,10.91
2022-09-09T17:35:51.239Z,10.99
2022-09-09T17:39:15.272Z,10.97
2022-09-09T17:42:40.288Z,10.94
2022-09-09T17:46:04.321Z,10.89
2022-09-09T17:49:32.234Z,10.88
2022-09-09T17:52:56.277Z,10.84
2022-09-09T17:56:21.287Z,10.81
2022-09-09T17:59:45.309Z,10.72
2022-09-09T18:03:11.325Z,10.74
2022-09-09T18:06:36.311Z,10.74
2022-09-09T18:10:00.288Z,10.68
2022-09-09T18:13:24.310Z,10.72
2022-09-09T18:16:49.352Z,10.69
2022-09-09T18:20:13.260Z,10.65
2022-09-09T18:23:36.289Z,10.66
2022-09-09T18:27:01.283Z,10.54
2022-09-09T18:30:25.289Z,10.58
2022-09-09T18:33:51.253Z,10.62
2022-09-09T18:37:18.278Z,10.57
2022-09-09T18:40:42.266Z,10.59
2022-09-09T18:44:08.328Z,10.57
2022-09-09T18:47:33.339Z,10.63
2022-09-09T18:50:57.267Z,10.66
2022-09-09T18:54:24.309Z,10.55
2022-09-09T18:57:49.272Z,10.57
2022-09-09T19:01:15.372Z,10.61
2022-09-09T19:04:41.303Z,10.65
2022-09-09T19:08:04.352Z,10.61
2022-09-09T19:11:33.300Z,10.65
2022-09-09T19:14:58.294Z,10.67
2022-09-09T19:18:22.312Z,10.72
2022-09-09T19:21:55.307Z,10.77
2022-09-09T19:25:19.305Z,10.69
2022-09-09T19:28:43.297Z,10.69
2022-09-09T19:32:42.759Z,10.77
2022-09-09T19:35:53.347Z,10.76
2022-09-09T19:39:26.336Z,10.83
2022-09-09T19:42:50.299Z,10.85
2022-09-09T19:46:17.366Z,10.87
2022-09-09T19:49:45.080Z,10.83
2022-09-09T19:53:12.349Z,10.93
2022-09-09T19:56:37.352Z,10.94
2022-09-09T20:00:01.277Z,10.97
2022-09-09T20:03:29.371Z,11.01
2022-09-09T20:06:55.292Z,11.05
2022-09-09T20:10:19.352Z,11.14
2022-09-09T20:13:45.334Z,11.23
2022-09-09T20:17:09.324Z,11.37
2022-09-09T20:20:32.301Z,11.34
2022-09-09T20:23:56.350Z,11.39
2022-09-09T20:27:20.306Z,11.42
2022-09-09T20:30:39.320Z,11.54
2022-09-09T20:34:03.302Z,11.74
2022-09-09T20:37:29.319Z,11.71
2022-09-09T20:40:56.329Z,11.63
2022-09-09T20:44:24.494Z,11.67
2022-09-09T20:47:48.334Z,11.61
2022-09-09T20:51:13.392Z,11.50
2022-09-09T20:54:43.303Z,11.61
2022-09-09T20:58:08.344Z,11.40
2022-09-09T21:01:33.356Z,11.36
2022-09-09T21:04:58.337Z,11.35
2022-09-09T21:08:22.342Z,11.56
2022-09-09T21:11:46.388Z,11.40
2022-09-09T21:15:11.345Z,11.36
2022-09-09T21:18:37.510Z,11.38
2022-09-09T21:22:01.310Z,11.54
2022-09-09T21:25:24.349Z,11.57
2022-09-09T21:28:49.306Z,11.66
2022-09-09T21:32:13.348Z,11.82
2022-09-09T21:35:38.350Z,11.86
2022-09-09T21:39:02.341Z,11.92
2022-09-09T21:42:19.381Z,11.95
2022-09-09T21:45:42.322Z,12.23
2022-09-09T21:49:06.382Z,12.19
2022-09-09T21:52:32.359Z,12.33
2022-09-09T21:55:58.404Z,12.35
2022-09-09T21:59:23.368Z,12.41
2022-09-09T22:02:47.462Z,12.27
2022-09-09T22:06:11.386Z,12.30
2022-09-09T22:09:35.379Z,12.47
2022-09-09T22:12:59.328Z,12.61
2022-09-09T22:16:25.489Z,12.62
2022-09-09T22:19:49.335Z,12.73
2022-09-09T22:23:15.371Z,12.94
2022-09-09T22:26:40.363Z,13.43
2022-09-09T22:30:05.416Z,13.21
2022-09-09T22:33:29.320Z,13.62
2022-09-09T22:36:54.409Z,13.59
2022-09-09T22:40:18.474Z,13.62
2022-09-09T22:43:44.346Z,13.90
2022-09-09T22:47:11.355Z,13.95
2022-09-09T22:50:38.969Z,14.30
2022-09-09T22:53:59.413Z,14.45
2022-09-09T22:57:23.385Z,14.78
2022-09-09T23:00:49.416Z,14.37
2022-09-09T23:04:13.393Z,14.17
2022-09-09T23:07:37.434Z,13.71
2022-09-09T23:11:03.382Z,14.13
2022-09-09T23:14:27.368Z,13.81
2022-09-09T23:17:57.388Z,13.47
2022-09-09T23:21:22.374Z,13.58
2022-09-09T23:24:46.424Z,13.49
2022-09-09T23:28:11.416Z,13.25
2022-09-09T23:31:37.476Z,13.21
2022-09-09T23:35:02.376Z,13.12
2022-09-09T23:38:26.430Z,13.32
2022-09-09T23:41:46.056Z,13.14
2022-09-09T23:45:10.383Z,13.14
2022-09-09T23:48:36.432Z,13.07
2022-09-09T23:52:00.387Z,13.03
2022-09-09T23:55:23.375Z,12.86
2022-09-09T23:58:47.436Z,12.91
